createdAt,value
2023-07-08T00:01:11.069Z,18.19
2023-07-08T00:03:38.607Z,18.15
2023-07-08T00:06:06.157Z,18.30
2023-07-08T00:08:35.189Z,18.07
2023-07-08T00:11:03.018Z,17.96
2023-07-08T00:13:30.708Z,17.79
2023-07-08T00:15:58.258Z,17.50
2023-07-08T00:18:25.804Z,17.38
2023-07-08T00:20:53.318Z,17.32
2023-07-08T00:23:22.772Z,17.22
2023-07-08T00:25:52.633Z,17.17
2023-07-08T00:28:22.152Z,17.36
2023-07-08T00:30:50.382Z,17.30
2023-07-08T00:33:18.532Z,17.21
2023-07-08T00:35:46.983Z,16.99
2023-07-08T00:38:16.950Z,16.94
2023-07-08T00:40:53.718Z,17.21
2023-07-08T00:43:24.352Z,17.19
2023-07-08T00:46:02.467Z,17.12
2023-07-08T00:48:32.425Z,17.16
2023-07-08T00:51:00.296Z,17.17
2023-07-08T00:53:30.376Z,17.11
2023-07-08T00:56:01.730Z,17.12
2023-07-08T00:58:33.726Z,17.15
2023-07-08T01:01:01.999Z,17.19
2023-07-08T01:03:30.564Z,17.20
2023-07-08T01:06:01.274Z,17.15
2023-07-08T01:08:31.798Z,17.06
2023-07-08T01:11:04.077Z,17.01
2023-07-08T01:13:36.576Z,17.04
2023-07-08T01:16:04.158Z,16.79
2023-07-08T01:18:32.098Z,16.77
2023-07-08T01:21:07.306Z,16.68
2023-07-08T01:23:37.804Z,16.67
2023-07-08T01:26:05.492Z,16.54
2023-07-08T01:28:33.385Z,16.46
2023-07-08T01:31:04.330Z,16.35
2023-07-08T01:33:35.279Z,16.25
2023-07-08T01:36:02.826Z,16.22
2023-07-08T01:38:30.594Z,16.17
2023-07-08T01:41:00.784Z,16.17
2023-07-08T01:43:28.714Z,16.22
2023-07-08T01:45:56.989Z,16.30
2023-07-08T01:48:25.338Z,16.16
2023-07-08T01:50:58.510Z,16.25
2023-07-08T01:53:31.690Z,16.11
2023-07-08T01:56:01.928Z,16.10
2023-07-08T01:58:29.810Z,15.92
2023-07-08T02:00:57.646Z,15.92
2023-07-08T02:03:25.649Z,15.81
2023-07-08T02:05:53.299Z,15.79
2023-07-08T02:08:21.205Z,15.71
2023-07-08T02:10:52.303Z,15.71
2023-07-08T02:13:21.632Z,15.66
2023-07-08T02:15:49.674Z,15.65
2023-07-08T02:18:19.973Z,15.66
2023-07-08T02:20:47.565Z,15.71
2023-07-08T02:23:15.595Z,15.72
2023-07-08T02:25:43.449Z,15.66
2023-07-08T02:28:13.336Z,15.67
2023-07-08T02:30:42.842Z,15.63
2023-07-08T02:33:11.017Z,15.67
2023-07-08T02:35:38.574Z,15.72
2023-07-08T02:38:06.607Z,15.61
2023-07-08T02:40:34.769Z,15.54
2023-07-08T02:43:02.493Z,15.56
2023-07-08T02:45:30.037Z,15.54
2023-07-08T02:47:58.961Z,15.48
2023-07-08T02:50:26.947Z,15.36
2023-07-08T02:52:54.454Z,15.25
2023-07-08T02:55:21.998Z,15.28
2023-07-08T02:57:49.537Z,15.26
2023-07-08T03:00:17.750Z,15.27
2023-07-08T03:02:45.362Z,15.32
2023-07-08T03:05:14.277Z,15.21
2023-07-08T03:07:41.852Z,15.16
2023-07-08T03:10:10.271Z,15.18
2023-07-08T03:12:37.805Z,15.18
2023-07-08T03:15:07.340Z,15.12
2023-07-08T03:17:34.921Z,15.12
2023-07-08T03:20:02.732Z,15.05
2023-07-08T03:22:31.851Z,14.99
2023-07-08T03:24:59.457Z,14.95
2023-07-08T03:27:27.240Z,14.93
2023-07-08T03:29:56.148Z,15.00
2023-07-08T03:32:24.383Z,14.95
2023-07-08T03:34:52.055Z,14.98
2023-07-08T03:37:21.378Z,14.96
2023-07-08T03:39:50.458Z,14.96
2023-07-08T03:42:18.014Z,14.79
2023-07-08T03:44:45.588Z,14.79
2023-07-08T03:47:13.454Z,14.78
2023-07-08T03:49:41.242Z,14.80
2023-07-08T03:52:11.716Z,14.68
2023-07-08T03:54:40.916Z,14.84
2023-07-08T03:57:09.847Z,15.10
2023-07-08T03:59:37.370Z,15.01
2023-07-08T04:02:05.514Z,14.95
2023-07-08T04:04:33.191Z,15.10
2023-07-08T04:07:00.746Z,15.37
2023-07-08T04:09:28.273Z,15.53
2023-07-08T04:11:55.846Z,15.65
2023-07-08T04:14:24.797Z,15.70
2023-07-08T04:16:54.629Z,15.77
2023-07-08T04:19:23.738Z,15.71
2023-07-08T04:21:51.709Z,15.56
2023-07-08T04:24:19.682Z,15.67
2023-07-08T04:26:48.403Z,15.70
2023-07-08T04:29:17.742Z,15.80
2023-07-08T04:31:46.886Z,15.96
2023-07-08T04:34:16.039Z,16.10
2023-07-08T04:36:43.684Z,16.24
2023-07-08T04:39:11.788Z,16.48
2023-07-08T04:41:41.671Z,16.80
2023-07-08T04:44:09.574Z,16.78
2023-07-08T04:46:40.116Z,16.87
2023-07-08T04:49:10.947Z,16.89
2023-07-08T04:51:38.748Z,16.91
2023-07-08T04:54:07.029Z,16.99
2023-07-08T04:56:40.097Z,17.05
2023-07-08T04:59:08.156Z,17.13
2023-07-08T05:01:35.835Z,17.24
2023-07-08T05:04:06.299Z,17.31
2023-07-08T05:06:35.539Z,17.32
2023-07-08T05:09:04.369Z,17.39
2023-07-08T05:11:32.038Z,17.47
2023-07-08T05:14:00.002Z,17.59
2023-07-08T05:16:27.657Z,17.65
2023-07-08T05:18:55.609Z,17.75
2023-07-08T05:21:23.532Z,17.91
2023-07-08T05:23:52.445Z,17.92
2023-07-08T05:26:20.066Z,17.99
2023-07-08T05:28:47.643Z,18.09
2023-07-08T05:31:15.202Z,18.27
2023-07-08T05:33:42.764Z,18.41
2023-07-08T05:36:10.344Z,18.55
2023-07-08T05:38:37.888Z,18.71
2023-07-08T05:41:07.379Z,18.87
2023-07-08T05:43:34.936Z,18.99
2023-07-08T05:46:11.124Z,19.14
2023-07-08T05:48:40.071Z,19.29
2023-07-08T05:51:07.764Z,19.40
2023-07-08T05:53:35.313Z,19.50
2023-07-08T05:56:04.344Z,19.61
2023-07-08T05:58:33.301Z,19.72
2023-07-08T06:01:01.184Z,19.84
2023-07-08T06:03:29.124Z,19.95
2023-07-08T06:05:56.698Z,20.06
2023-07-08T06:08:24.396Z,20.16
2023-07-08T06:10:52.309Z,20.25
2023-07-08T06:13:19.875Z,20.36
2023-07-08T06:15:48.937Z,20.46
2023-07-08T06:18:16.587Z,20.57
2023-07-08T06:20:44.176Z,20.66
2023-07-08T06:23:11.703Z,20.78
2023-07-08T06:25:39.211Z,20.93
2023-07-08T06:28:06.722Z,21.00
2023-07-08T06:30:34.310Z,21.12
2023-07-08T06:33:03.203Z,21.27
2023-07-08T06:35:30.765Z,21.42
2023-07-08T06:37:58.289Z,21.53
2023-07-08T06:40:25.880Z,21.68
2023-07-08T06:42:53.414Z,21.81
2023-07-08T06:45:42.007Z,22.00
2023-07-08T06:48:11.023Z,22.12
2023-07-08T06:50:39.767Z,22.26
2023-07-08T06:53:08.973Z,22.42
2023-07-08T06:55:36.542Z,22.59
2023-07-08T06:58:04.118Z,22.75
2023-07-08T07:00:31.666Z,22.92
2023-07-08T07:03:00.336Z,23.03
2023-07-08T07:05:29.316Z,23.27
2023-07-08T07:07:58.128Z,23.56
2023-07-08T07:10:25.853Z,23.73
2023-07-08T07:12:53.435Z,23.92
2023-07-08T07:15:20.967Z,24.13
2023-07-08T07:17:48.601Z,24.24
2023-07-08T07:20:16.410Z,24.48
2023-07-08T07:22:45.391Z,24.71
2023-07-08T07:25:12.945Z,24.80
2023-07-08T07:27:40.487Z,24.99
2023-07-08T07:30:10.918Z,25.08
2023-07-08T07:32:38.651Z,25.22
2023-07-08T07:35:07.619Z,25.30
2023-07-08T07:37:35.158Z,25.50
2023-07-08T07:40:04.261Z,25.63
2023-07-08T07:42:31.784Z,25.80
2023-07-08T07:44:59.460Z,25.91
2023-07-08T07:47:28.986Z,26.02
2023-07-08T07:49:58.020Z,26.15
2023-07-08T07:52:26.251Z,26.35
2023-07-08T07:54:54.988Z,26.57
2023-07-08T07:57:24.135Z,26.75
2023-07-08T07:59:51.675Z,26.86
2023-07-08T08:02:19.674Z,26.97
2023-07-08T08:04:47.382Z,27.10
2023-07-08T08:07:15.056Z,27.19
2023-07-08T08:09:42.785Z,27.38
2023-07-08T08:12:12.075Z,27.66
2023-07-08T08:14:41.297Z,27.72
2023-07-08T08:17:08.987Z,27.75
2023-07-08T08:19:36.709Z,27.90
2023-07-08T08:22:04.682Z,28.18
2023-07-08T08:24:32.266Z,28.24
2023-07-08T08:26:59.995Z,28.35
2023-07-08T08:29:27.667Z,28.43
2023-07-08T08:31:56.529Z,28.46
2023-07-08T08:34:24.060Z,28.55
2023-07-08T08:36:51.555Z,28.63
2023-07-08T08:39:19.142Z,28.66
2023-07-08T08:41:46.761Z,28.72
2023-07-08T08:44:17.154Z,29.00
2023-07-08T08:46:51.045Z,29.10
2023-07-08T08:49:26.825Z,29.19
2023-07-08T08:51:54.922Z,29.32
2023-07-08T08:54:22.627Z,29.52
2023-07-08T08:56:56.215Z,29.52
2023-07-08T08:59:29.849Z,29.75
2023-07-08T09:01:57.978Z,29.81
2023-07-08T09:04:31.609Z,29.92
2023-07-08T09:07:03.080Z,29.80
2023-07-08T09:09:35.198Z,29.60
2023-07-08T09:12:06.114Z,29.73
2023-07-08T09:14:36.230Z,29.73
2023-07-08T09:17:16.714Z,29.85
2023-07-08T09:19:47.290Z,30.10
2023-07-08T09:22:18.221Z,30.27
2023-07-08T09:24:47.843Z,30.45
2023-07-08T09:27:15.456Z,30.51
2023-07-08T09:29:43.031Z,30.57
2023-07-08T09:32:18.648Z,30.78
2023-07-08T09:34:49.119Z,30.88
2023-07-08T09:37:23.608Z,30.91
2023-07-08T09:39:51.340Z,30.79
2023-07-08T09:42:18.994Z,30.10
2023-07-08T09:44:47.717Z,30.29
2023-07-08T09:47:25.007Z,30.54
2023-07-08T09:49:55.256Z,30.83
2023-07-08T09:52:23.691Z,30.73
2023-07-08T09:54:51.418Z,30.49
2023-07-08T09:57:27.799Z,30.41
2023-07-08T09:59:59.572Z,30.74
2023-07-08T10:02:28.364Z,31.04
2023-07-08T10:04:58.759Z,31.12
2023-07-08T10:07:29.807Z,31.39
2023-07-08T10:10:00.177Z,31.52
2023-07-08T10:12:27.816Z,31.59
2023-07-08T10:15:00.003Z,31.71
2023-07-08T10:17:27.845Z,31.79
2023-07-08T10:19:57.048Z,31.84
2023-07-08T10:22:37.900Z,31.64
2023-07-08T10:25:15.426Z,31.86
2023-07-08T10:27:50.058Z,32.19
2023-07-08T10:30:22.299Z,32.36
2023-07-08T10:33:20.573Z,32.12
2023-07-08T10:35:55.196Z,32.27
2023-07-08T10:38:36.333Z,32.38
2023-07-08T10:41:10.384Z,32.41
2023-07-08T10:43:46.398Z,32.48
2023-07-08T10:46:35.601Z,32.71
2023-07-08T10:49:22.696Z,32.23
2023-07-08T10:52:00.201Z,32.13
2023-07-08T10:54:42.646Z,32.21
2023-07-08T10:57:21.297Z,32.35
2023-07-08T10:59:58.391Z,32.54
2023-07-08T11:02:40.906Z,32.45
2023-07-08T11:05:20.558Z,32.26
2023-07-08T11:07:53.296Z,32.05
2023-07-08T11:10:25.465Z,32.20
2023-07-08T11:12:57.258Z,32.11
2023-07-08T11:15:26.326Z,31.90
2023-07-08T11:17:59.367Z,32.17
2023-07-08T11:20:33.228Z,32.02
2023-07-08T11:23:05.250Z,32.14
2023-07-08T11:25:33.945Z,32.36
2023-07-08T11:28:05.134Z,32.44
2023-07-08T11:30:35.842Z,32.26
2023-07-08T11:33:05.799Z,32.63
2023-07-08T11:35:40.953Z,32.76
2023-07-08T11:38:13.790Z,32.65
2023-07-08T11:40:52.590Z,32.50
2023-07-08T11:43:21.531Z,32.06
2023-07-08T11:45:50.883Z,32.54
2023-07-08T11:48:20.695Z,32.68
2023-07-08T11:50:49.186Z,33.34
2023-07-08T11:53:34.837Z,33.70
2023-07-08T11:56:05.416Z,33.91
2023-07-08T11:58:34.190Z,33.69
2023-07-08T12:01:06.167Z,33.09
2023-07-08T12:03:37.332Z,33.15
2023-07-08T12:06:07.456Z,33.45
2023-07-08T12:08:41.535Z,33.05
2023-07-08T12:11:13.558Z,33.06
2023-07-08T12:13:40.995Z,33.13
2023-07-08T12:16:10.917Z,33.04
2023-07-08T12:18:46.770Z,32.99
2023-07-08T12:21:15.162Z,32.80
2023-07-08T12:23:48.322Z,32.74
2023-07-08T12:26:16.573Z,33.32
2023-07-08T12:28:44.597Z,33.56
2023-07-08T12:31:17.289Z,33.75
2023-07-08T12:33:45.583Z,33.53
2023-07-08T12:36:17.213Z,33.49
2023-07-08T12:38:47.353Z,33.85
2023-07-08T12:41:18.009Z,33.74
2023-07-08T12:43:46.493Z,33.43
2023-07-08T12:46:15.198Z,33.48
2023-07-08T12:48:42.920Z,33.21
2023-07-08T12:51:14.120Z,33.27
2023-07-08T12:53:41.909Z,33.39
2023-07-08T12:56:11.217Z,33.56
2023-07-08T12:58:41.781Z,33.77
2023-07-08T13:01:11.411Z,33.70
2023-07-08T13:03:42.649Z,33.36
2023-07-08T13:06:11.546Z,33.09
2023-07-08T13:08:40.226Z,32.65
2023-07-08T13:11:08.681Z,33.28
2023-07-08T13:13:39.351Z,33.54
2023-07-08T13:16:07.428Z,33.58
2023-07-08T13:18:36.184Z,33.52
2023-07-08T13:21:05.149Z,33.25
2023-07-08T13:23:32.794Z,32.81
2023-07-08T13:26:00.469Z,33.05
2023-07-08T13:28:29.878Z,33.22
2023-07-08T13:31:01.272Z,32.99
2023-07-08T13:33:31.172Z,32.83
2023-07-08T13:35:58.900Z,32.89
2023-07-08T13:38:30.279Z,33.09
2023-07-08T13:41:00.857Z,33.03
2023-07-08T13:43:30.223Z,32.58
2023-07-08T13:45:59.991Z,32.83
2023-07-08T13:48:30.719Z,33.05
2023-07-08T13:51:01.182Z,33.18
2023-07-08T13:53:40.647Z,33.28
2023-07-08T13:56:14.717Z,33.40
2023-07-08T13:58:45.060Z,33.03
2023-07-08T14:01:18.682Z,33.17
2023-07-08T14:03:48.520Z,33.23
2023-07-08T14:06:17.263Z,33.10
2023-07-08T14:08:44.953Z,33.04
2023-07-08T14:11:12.480Z,32.66
2023-07-08T14:13:40.098Z,32.51
2023-07-08T14:16:12.683Z,32.38
2023-07-08T14:18:41.543Z,32.08
2023-07-08T14:21:10.376Z,32.18
2023-07-08T14:23:38.353Z,32.50
2023-07-08T14:26:09.558Z,32.67
2023-07-08T14:28:37.100Z,32.31
2023-07-08T14:31:05.161Z,32.51
2023-07-08T14:33:32.932Z,32.65
2023-07-08T14:36:01.808Z,32.20
2023-07-08T14:38:29.320Z,32.18
2023-07-08T14:40:57.295Z,32.45
2023-07-08T14:43:29.275Z,32.56
2023-07-08T14:45:58.828Z,32.34
2023-07-08T14:48:27.434Z,32.54
2023-07-08T14:50:55.286Z,32.74
2023-07-08T14:53:24.175Z,32.57
2023-07-08T14:55:53.342Z,32.43
2023-07-08T14:58:23.936Z,32.27
2023-07-08T15:00:52.197Z,32.17
2023-07-08T15:03:20.001Z,32.21
2023-07-08T15:05:48.565Z,32.32
2023-07-08T15:08:16.120Z,32.51
2023-07-08T15:10:49.194Z,32.49
2023-07-08T15:13:17.553Z,32.56
2023-07-08T15:15:45.093Z,32.58
2023-07-08T15:18:14.897Z,32.59
2023-07-08T15:20:43.412Z,32.77
2023-07-08T15:23:11.486Z,32.95
2023-07-08T15:25:39.247Z,33.06
2023-07-08T15:28:11.231Z,32.67
2023-07-08T15:30:39.377Z,32.60
2023-07-08T15:33:06.999Z,32.62
2023-07-08T15:35:35.119Z,32.50
2023-07-08T15:38:05.067Z,32.42
2023-07-08T15:40:34.633Z,32.60
2023-07-08T15:43:03.499Z,32.71
2023-07-08T15:45:34.456Z,32.77
2023-07-08T15:48:02.027Z,32.76
2023-07-08T15:50:29.919Z,32.76
2023-07-08T15:52:57.465Z,32.72
2023-07-08T15:55:27.343Z,32.75
2023-07-08T15:57:57.120Z,32.66
2023-07-08T16:00:28.707Z,32.47
2023-07-08T16:03:07.786Z,32.17
2023-07-08T16:05:37.026Z,32.24
2023-07-08T16:08:05.104Z,31.98
2023-07-08T16:10:33.368Z,31.98
2023-07-08T16:13:00.957Z,31.95
2023-07-08T16:15:30.358Z,31.87
2023-07-08T16:17:59.636Z,31.88
2023-07-08T16:20:28.462Z,31.67
2023-07-08T16:22:56.444Z,31.57
2023-07-08T16:25:28.990Z,31.51
2023-07-08T16:27:56.856Z,31.43
2023-07-08T16:30:24.439Z,31.31
2023-07-08T16:32:52.134Z,31.50
2023-07-08T16:35:22.432Z,31.53
2023-07-08T16:37:51.374Z,31.65
2023-07-08T16:40:25.846Z,31.74
2023-07-08T16:42:56.218Z,31.78
2023-07-08T16:45:25.171Z,31.76
2023-07-08T16:47:53.416Z,31.68
2023-07-08T16:50:24.033Z,31.59
2023-07-08T16:52:51.768Z,31.53
2023-07-08T16:55:20.887Z,31.47
2023-07-08T16:57:48.731Z,31.42
2023-07-08T17:00:19.037Z,31.34
2023-07-08T17:02:47.483Z,31.29
2023-07-08T17:05:22.474Z,31.27
2023-07-08T17:07:50.692Z,31.22
2023-07-08T17:10:19.290Z,31.17
2023-07-08T17:12:46.993Z,31.09
2023-07-08T17:15:15.612Z,31.05
2023-07-08T17:17:45.362Z,31.06
2023-07-08T17:20:18.783Z,31.01
2023-07-08T17:22:48.119Z,30.94
2023-07-08T17:25:18.042Z,30.90
2023-07-08T17:27:45.820Z,30.87
2023-07-08T17:30:15.179Z,30.87
2023-07-08T17:32:44.088Z,30.80
2023-07-08T17:35:14.814Z,30.75
2023-07-08T17:37:42.669Z,30.66
2023-07-08T17:40:16.580Z,30.58
2023-07-08T17:42:44.801Z,30.51
2023-07-08T17:45:14.229Z,30.46
2023-07-08T17:47:42.230Z,30.41
2023-07-08T17:50:17.741Z,30.38
2023-07-08T17:52:45.707Z,30.34
2023-07-08T17:55:15.008Z,30.27
2023-07-08T17:57:43.816Z,30.20
2023-07-08T18:00:16.256Z,30.14
2023-07-08T18:02:43.910Z,30.06
2023-07-08T18:05:18.869Z,30.02
2023-07-08T18:07:47.462Z,30.00
2023-07-08T18:10:17.868Z,29.95
2023-07-08T18:12:46.899Z,29.85
2023-07-08T18:15:20.460Z,29.79
2023-07-08T18:17:49.668Z,29.71
2023-07-08T18:20:17.400Z,29.68
2023-07-08T18:22:47.077Z,29.67
2023-07-08T18:25:20.850Z,29.64
2023-07-08T18:27:48.480Z,29.56
2023-07-08T18:30:18.403Z,29.51
2023-07-08T18:32:47.815Z,29.46
2023-07-08T18:35:17.973Z,29.44
2023-07-08T18:37:46.038Z,29.39
2023-07-08T18:40:15.316Z,29.34
2023-07-08T18:42:46.237Z,29.28
2023-07-08T18:45:19.276Z,29.22
2023-07-08T18:47:46.980Z,29.17
2023-07-08T18:50:15.028Z,29.11
2023-07-08T18:52:43.125Z,29.06
2023-07-08T18:55:14.763Z,28.99
2023-07-08T18:57:43.598Z,28.94
2023-07-08T19:00:13.314Z,28.87
2023-07-08T19:02:48.164Z,28.80
2023-07-08T19:05:16.595Z,28.70
2023-07-08T19:07:44.166Z,28.66
2023-07-08T19:10:14.837Z,28.60
2023-07-08T19:12:47.618Z,28.48
2023-07-08T19:15:20.373Z,28.45
2023-07-08T19:17:49.060Z,28.42
2023-07-08T19:20:17.065Z,28.39
2023-07-08T19:22:45.073Z,28.35
2023-07-08T19:25:20.735Z,28.28
2023-07-08T19:27:50.132Z,28.22
2023-07-08T19:30:18.602Z,28.18
2023-07-08T19:32:49.795Z,28.13
2023-07-08T19:35:19.141Z,28.10
2023-07-08T19:37:46.873Z,28.05
2023-07-08T19:40:16.271Z,28.00
2023-07-08T19:42:44.722Z,27.96
2023-07-08T19:45:22.560Z,27.91
2023-07-08T19:47:51.000Z,27.84
2023-07-08T19:50:20.528Z,27.82
2023-07-08T19:52:48.437Z,27.78
2023-07-08T19:55:16.554Z,27.74
2023-07-08T19:57:47.225Z,27.68
2023-07-08T20:00:25.639Z,27.62
2023-07-08T20:02:54.053Z,27.53
2023-07-08T20:05:23.316Z,27.22
2023-07-08T20:07:50.959Z,27.11
2023-07-08T20:10:19.783Z,26.98
2023-07-08T20:12:47.438Z,26.58
2023-07-08T20:15:15.078Z,26.27
2023-07-08T20:17:44.099Z,26.27
2023-07-08T20:20:23.034Z,26.01
2023-07-08T20:22:50.582Z,26.00
2023-07-08T20:25:18.904Z,25.97
2023-07-08T20:27:47.415Z,25.85
2023-07-08T20:30:17.511Z,25.59
2023-07-08T20:32:46.689Z,25.55
2023-07-08T20:35:14.752Z,25.36
2023-07-08T20:37:42.326Z,25.54
2023-07-08T20:40:17.939Z,25.78
2023-07-08T20:42:45.508Z,25.68
2023-07-08T20:45:14.125Z,25.39
2023-07-08T20:47:44.347Z,25.10
2023-07-08T20:50:18.257Z,24.72
2023-07-08T20:52:46.312Z,24.65
2023-07-08T20:55:15.234Z,24.78
2023-07-08T20:57:43.062Z,24.72
2023-07-08T21:00:23.821Z,24.35
2023-07-08T21:02:52.040Z,24.25
2023-07-08T21:05:21.311Z,24.19
2023-07-08T21:07:49.194Z,24.08
2023-07-08T21:10:18.659Z,24.16
2023-07-08T21:12:46.371Z,24.07
2023-07-08T21:15:14.469Z,24.07
2023-07-08T21:17:42.426Z,24.18
2023-07-08T21:20:16.448Z,24.20
2023-07-08T21:22:45.404Z,23.99
2023-07-08T21:25:13.766Z,23.93
2023-07-08T21:27:41.398Z,23.87
2023-07-08T21:30:17.168Z,23.76
2023-07-08T21:32:46.057Z,23.63
2023-07-08T21:35:14.122Z,23.58
2023-07-08T21:37:49.761Z,23.51
2023-07-08T21:40:31.013Z,23.37
2023-07-08T21:42:58.618Z,23.25
2023-07-08T21:45:27.829Z,23.27
2023-07-08T21:47:55.455Z,23.27
2023-07-08T21:50:23.658Z,23.19
2023-07-08T21:52:53.761Z,23.08
2023-07-08T21:55:24.101Z,23.11
2023-07-08T21:57:54.719Z,23.11
2023-07-08T22:00:22.613Z,23.02
2023-07-08T22:03:11.204Z,23.10
2023-07-08T22:05:38.697Z,22.82
2023-07-08T22:08:09.793Z,22.58
2023-07-08T22:10:37.468Z,22.56
2023-07-08T22:13:05.057Z,22.52
2023-07-08T22:15:32.642Z,22.42
2023-07-08T22:18:00.248Z,22.40
2023-07-08T22:20:29.995Z,22.21
2023-07-08T22:22:57.540Z,22.34
2023-07-08T22:25:28.253Z,22.35
2023-07-08T22:27:55.861Z,22.47
2023-07-08T22:30:24.099Z,22.31
2023-07-08T22:32:52.503Z,22.25
2023-07-08T22:35:31.037Z,22.26
2023-07-08T22:37:59.398Z,21.98
2023-07-08T22:40:29.261Z,21.84
2023-07-08T22:42:58.156Z,21.70
2023-07-08T22:45:25.988Z,21.66
2023-07-08T22:47:53.650Z,21.81
2023-07-08T22:50:23.254Z,21.83
2023-07-08T22:52:52.668Z,21.74
2023-07-08T22:55:23.910Z,21.52
2023-07-08T22:57:52.848Z,21.46
2023-07-08T23:00:22.477Z,21.55
2023-07-08T23:02:50.449Z,21.47
2023-07-08T23:05:21.945Z,21.45
2023-07-08T23:07:49.670Z,21.24
2023-07-08T23:10:17.928Z,20.82
2023-07-08T23:12:45.530Z,20.71
2023-07-08T23:15:14.390Z,20.75
2023-07-08T23:17:44.328Z,20.82
2023-07-08T23:20:19.050Z,20.94
2023-07-08T23:22:48.273Z,20.96
2023-07-08T23:25:16.743Z,20.89
2023-07-08T23:27:44.954Z,20.96
2023-07-08T23:30:18.093Z,20.91
2023-07-08T23:32:46.345Z,20.63
2023-07-08T23:35:14.131Z,20.66
2023-07-08T23:37:42.441Z,20.55
2023-07-08T23:40:15.199Z,20.54
2023-07-08T23:42:43.541Z,20.69
2023-07-08T23:45:15.022Z,20.77
2023-07-08T23:47:43.605Z,20.80
2023-07-08T23:50:17.688Z,20.62
2023-07-08T23:52:45.352Z,20.53
2023-07-08T23:55:13.785Z,20.42
2023-07-08T23:57:41.592Z,20.36
